createdAt,value
2023-08-24T00:00:45.850Z,99998.13
2023-08-24T00:03:12.527Z,99998.94
2023-08-24T00:05:39.781Z,100004.03
2023-08-24T00:08:10.448Z,100008.66
2023-08-24T00:10:37.477Z,100001.28
2023-08-24T00:13:04.324Z,100008.66
2023-08-24T00:15:31.260Z,100005.84
2023-08-24T00:17:58.031Z,100008.50
2023-08-24T00:20:24.703Z,100012.09
2023-08-24T00:22:51.316Z,100010.34
2023-08-24T00:25:19.425Z,100004.34
2023-08-24T00:27:46.163Z,100006.47
2023-08-24T00:30:12.913Z,100003.53
2023-08-24T00:32:39.621Z,100002.19
2023-08-24T00:35:11.257Z,100005.63
2023-08-24T00:37:38.682Z,100003.53
2023-08-24T00:40:09.690Z,100002.81
2023-08-24T00:42:43.149Z,100006.44
2023-08-24T00:45:10.791Z,100003.66
2023-08-24T00:47:38.864Z,100009.84
2023-08-24T00:50:06.083Z,100006.75
2023-08-24T00:52:33.676Z,100006.09
2023-08-24T00:55:00.776Z,100004.31
2023-08-24T00:57:28.431Z,100006.28
2023-08-24T00:59:56.262Z,100006.94
2023-08-24T01:02:23.084Z,99995.59
2023-08-24T01:04:53.344Z,100002.94
2023-08-24T01:07:20.253Z,100007.72
2023-08-24T01:09:47.620Z,100003.16
2023-08-24T01:12:14.282Z,100008.63
2023-08-24T01:15:01.199Z,100007.00
2023-08-24T01:17:30.273Z,100004.88
2023-08-24T01:19:59.253Z,100008.47
2023-08-24T01:22:28.682Z,100015.53
2023-08-24T01:25:01.931Z,100007.81
2023-08-24T01:27:30.429Z,100015.38
2023-08-24T01:29:58.162Z,100014.72
2023-08-24T01:32:25.737Z,100014.03
2023-08-24T01:34:52.415Z,100005.50
2023-08-24T01:37:19.874Z,100001.09
2023-08-24T01:40:11.187Z,100011.25
2023-08-24T01:42:46.547Z,100010.91
2023-08-24T01:45:14.192Z,100005.31
2023-08-24T01:47:42.732Z,100009.59
2023-08-24T01:50:09.808Z,100007.97
2023-08-24T01:52:36.607Z,100012.56
2023-08-24T01:55:04.159Z,100014.25
2023-08-24T01:57:30.873Z,100006.53
2023-08-24T01:59:57.641Z,100008.63
2023-08-24T02:02:24.917Z,100013.41
2023-08-24T02:04:51.970Z,100016.03
2023-08-24T02:07:18.585Z,100019.50
2023-08-24T02:09:45.279Z,100023.41
2023-08-24T02:12:12.428Z,100018.50
2023-08-24T02:14:39.131Z,100018.97
2023-08-24T02:17:05.915Z,100024.06
2023-08-24T02:19:32.685Z,100026.53
2023-08-24T02:21:59.884Z,100025.25
2023-08-24T02:24:26.638Z,100026.53
2023-08-24T02:26:53.237Z,100023.44
2023-08-24T02:29:19.909Z,100027.34
2023-08-24T02:31:46.524Z,100025.41
2023-08-24T02:34:14.419Z,100033.44
2023-08-24T02:36:41.031Z,100038.84
2023-08-24T02:39:08.438Z,100039.69
2023-08-24T02:41:35.694Z,100042.97
2023-08-24T02:44:02.851Z,100038.06
2023-08-24T02:46:29.809Z,100046.75
2023-08-24T02:48:56.553Z,100039.66
2023-08-24T02:51:23.831Z,100040.81
2023-08-24T02:53:50.739Z,100045.06
2023-08-24T02:56:17.523Z,100034.34
2023-08-24T02:58:44.264Z,100040.59
2023-08-24T03:01:10.891Z,100028.63
2023-08-24T03:03:39.119Z,100029.44
2023-08-24T03:06:06.907Z,100028.63
2023-08-24T03:08:35.182Z,100032.03
2023-08-24T03:11:02.213Z,100025.16
2023-08-24T03:13:29.306Z,100033.72
2023-08-24T03:15:56.072Z,100025.22
2023-08-24T03:18:25.202Z,100023.56
2023-08-24T03:20:52.038Z,100030.63
2023-08-24T03:23:18.820Z,100036.97
2023-08-24T03:25:45.558Z,100037.94
2023-08-24T03:28:12.511Z,100034.97
2023-08-24T03:30:40.288Z,100036.78
2023-08-24T03:33:07.986Z,100042.31
2023-08-24T03:35:35.197Z,100049.06
2023-08-24T03:38:02.090Z,100040.34
2023-08-24T03:40:28.817Z,100042.34
2023-08-24T03:42:55.484Z,100052.19
2023-08-24T03:45:22.487Z,100046.28
2023-08-24T03:47:49.944Z,100054.81
2023-08-24T03:50:17.082Z,100048.38
2023-08-24T03:52:44.110Z,100047.72
2023-08-24T03:55:11.517Z,100048.88
2023-08-24T03:57:39.305Z,100060.00
2023-08-24T04:00:08.344Z,100059.81
2023-08-24T04:02:40.632Z,100066.38
2023-08-24T04:05:08.021Z,100068.53
2023-08-24T04:07:37.441Z,100065.78
2023-08-24T04:10:05.996Z,100068.41
2023-08-24T04:12:33.095Z,100072.69
2023-08-24T04:14:59.851Z,100079.84
2023-08-24T04:17:26.752Z,100075.59
2023-08-24T04:19:53.788Z,100080.97
2023-08-24T04:22:20.577Z,100082.28
2023-08-24T04:24:47.201Z,100087.38
2023-08-24T04:27:13.791Z,100087.06
2023-08-24T04:29:40.400Z,100083.28
2023-08-24T04:32:07.153Z,100079.97
2023-08-24T04:34:33.753Z,100079.94
2023-08-24T04:37:00.401Z,100084.19
2023-08-24T04:39:27.510Z,100092.94
2023-08-24T04:41:54.180Z,100088.75
2023-08-24T04:44:20.853Z,100093.88
2023-08-24T04:46:47.435Z,100095.41
2023-08-24T04:49:14.038Z,100092.78
2023-08-24T04:51:40.687Z,100096.44
2023-08-24T04:54:07.320Z,100091.41
2023-08-24T04:56:34.180Z,100101.38
2023-08-24T04:59:02.098Z,100101.59
2023-08-24T05:01:28.804Z,100105.31
2023-08-24T05:03:55.553Z,100111.28
2023-08-24T05:06:22.215Z,100104.25
2023-08-24T05:08:49.084Z,100103.72
2023-08-24T05:11:18.317Z,100109.50
2023-08-24T05:13:45.049Z,100100.81
2023-08-24T05:16:12.026Z,100105.44
2023-08-24T05:18:38.778Z,100109.41
2023-08-24T05:21:05.411Z,100104.94
2023-08-24T05:23:32.706Z,100108.25
2023-08-24T05:25:59.800Z,100108.44
2023-08-24T05:28:29.859Z,100098.44
2023-08-24T05:30:57.081Z,100100.25
2023-08-24T05:33:24.356Z,100093.25
2023-08-24T05:35:51.758Z,100097.69
2023-08-24T05:38:18.566Z,100097.09
2023-08-24T05:40:47.668Z,100091.31
2023-08-24T05:43:14.274Z,100095.28
2023-08-24T05:45:41.809Z,100099.91
2023-08-24T05:48:08.843Z,100095.63
2023-08-24T05:50:35.596Z,100095.63
2023-08-24T05:53:02.252Z,100095.16
2023-08-24T05:55:28.989Z,100088.47
2023-08-24T05:57:55.609Z,100092.41
2023-08-24T06:00:23.643Z,100096.69
2023-08-24T06:02:50.340Z,100097.66
2023-08-24T06:05:19.156Z,100094.22
2023-08-24T06:07:46.932Z,100093.56
2023-08-24T06:10:13.713Z,100094.22
2023-08-24T06:12:40.331Z,100096.84
2023-08-24T06:15:08.925Z,100098.97
2023-08-24T06:17:36.682Z,100102.59
2023-08-24T06:20:06.512Z,100108.50
2023-08-24T06:22:33.927Z,100100.44
2023-08-24T06:25:01.298Z,100106.38
2023-08-24T06:27:27.978Z,100108.16
2023-08-24T06:29:54.578Z,100111.47
2023-08-24T06:32:21.237Z,100109.19
2023-08-24T06:34:47.843Z,100113.44
2023-08-24T06:37:14.476Z,100119.69
2023-08-24T06:39:41.107Z,100117.22
2023-08-24T06:42:07.775Z,100109.66
2023-08-24T06:44:34.919Z,100113.72
2023-08-24T06:47:04.419Z,100116.34
2023-08-24T06:49:32.360Z,100110.09
2023-08-24T06:51:58.969Z,100113.22
2023-08-24T06:54:26.832Z,100111.41
2023-08-24T06:56:55.079Z,100117.66
2023-08-24T06:59:21.702Z,100116.38
2023-08-24T07:01:48.589Z,100113.88
2023-08-24T07:04:15.394Z,100116.88
2023-08-24T07:06:43.718Z,100119.31
2023-08-24T07:09:10.432Z,100124.25
2023-08-24T07:11:37.037Z,100115.22
2023-08-24T07:14:03.642Z,100115.84
2023-08-24T07:16:30.364Z,100108.47
2023-08-24T07:18:56.967Z,100117.84
2023-08-24T07:21:23.585Z,100116.34
2023-08-24T07:23:50.247Z,100120.63
2023-08-24T07:26:16.923Z,100119.00
2023-08-24T07:28:43.533Z,100130.84
2023-08-24T07:31:11.918Z,100127.22
2023-08-24T07:33:41.579Z,100128.19
2023-08-24T07:36:08.171Z,100128.00
2023-08-24T07:38:34.943Z,100130.75
2023-08-24T07:41:01.712Z,100132.56
2023-08-24T07:43:28.503Z,100129.25
2023-08-24T07:45:56.084Z,100135.81
2023-08-24T07:48:22.835Z,100132.16
2023-08-24T07:50:49.430Z,100137.41
2023-08-24T07:53:16.081Z,100138.16
2023-08-24T07:55:43.635Z,100146.38
2023-08-24T07:58:10.313Z,100134.50
2023-08-24T08:00:36.941Z,100129.84
2023-08-24T08:03:03.770Z,100139.03
2023-08-24T08:05:30.467Z,100139.63
2023-08-24T08:07:57.158Z,100137.63
2023-08-24T08:10:23.780Z,100142.75
2023-08-24T08:12:50.410Z,100137.28
2023-08-24T08:15:17.021Z,100149.81
2023-08-24T08:17:43.879Z,100146.63
2023-08-24T08:20:11.166Z,100136.53
2023-08-24T08:22:39.710Z,100143.69
2023-08-24T08:25:07.245Z,100150.91
2023-08-24T08:27:34.358Z,100140.81
2023-08-24T08:30:01.233Z,100143.56
2023-08-24T08:32:28.529Z,100145.50
2023-08-24T08:34:58.024Z,100134.50
2023-08-24T08:37:24.693Z,100138.72
2023-08-24T08:39:51.341Z,100139.19
2023-08-24T08:42:17.934Z,100136.81
2023-08-24T08:44:46.476Z,100132.94
2023-08-24T08:47:13.297Z,100094.59
2023-08-24T08:49:40.376Z,100140.28
2023-08-24T08:52:07.262Z,100143.41
2023-08-24T08:54:36.715Z,100135.78
2023-08-24T08:57:04.339Z,100133.75
2023-08-24T08:59:31.623Z,100138.59
2023-08-24T09:01:59.238Z,100141.41
2023-08-24T09:04:26.390Z,100143.06
2023-08-24T09:06:53.175Z,100140.53
2023-08-24T09:09:19.905Z,100145.13
2023-08-24T09:11:48.692Z,100147.06
2023-08-24T09:14:15.657Z,100153.50
2023-08-24T09:16:42.558Z,100151.97
2023-08-24T09:19:11.849Z,100154.97
2023-08-24T09:21:39.190Z,100148.69
2023-08-24T09:24:06.824Z,100145.31
2023-08-24T09:26:43.757Z,100147.59
2023-08-24T09:29:14.641Z,100141.59
2023-08-24T09:31:41.640Z,100149.16
2023-08-24T09:34:08.485Z,100144.31
2023-08-24T09:36:35.627Z,100139.50
2023-08-24T09:39:05.704Z,100133.84
2023-08-24T09:41:39.289Z,100139.00
2023-08-24T09:44:06.709Z,100131.06
2023-08-24T09:46:33.312Z,100140.91
2023-08-24T09:49:01.699Z,100140.72
2023-08-24T09:51:28.850Z,100141.53
2023-08-24T09:53:58.099Z,100147.28
2023-08-24T09:56:26.480Z,100141.88
2023-08-24T09:58:54.946Z,100146.09
2023-08-24T10:01:22.619Z,100135.97
2023-08-24T10:03:52.809Z,100138.06
2023-08-24T10:06:21.334Z,100142.59
2023-08-24T10:09:02.207Z,100132.66
2023-08-24T10:11:29.815Z,100135.94
2023-08-24T10:14:04.119Z,100130.09
2023-08-24T10:16:31.432Z,100129.81
2023-08-24T10:18:58.469Z,100113.38
2023-08-24T10:21:28.236Z,100128.22
2023-08-24T10:23:57.523Z,100122.75
2023-08-24T10:26:24.718Z,100125.41
2023-08-24T10:28:52.577Z,100125.84
2023-08-24T10:31:19.343Z,100117.94
2023-08-24T10:33:50.147Z,100116.66
2023-08-24T10:36:17.979Z,100113.19
2023-08-24T10:38:44.815Z,100117.94
2023-08-24T10:41:15.991Z,100121.44
2023-08-24T10:43:49.299Z,100121.63
2023-08-24T10:46:17.890Z,100118.97
2023-08-24T10:48:47.724Z,100117.75
2023-08-24T10:51:14.394Z,100116.16
2023-08-24T10:53:41.717Z,100120.22
2023-08-24T10:56:12.686Z,100117.75
2023-08-24T10:58:39.400Z,100114.75
2023-08-24T11:01:06.050Z,100116.03
2023-08-24T11:03:34.027Z,100115.84
2023-08-24T11:06:00.753Z,100111.00
2023-08-24T11:08:46.149Z,99930.19
2023-08-24T11:11:19.569Z,100100.97
2023-08-24T11:14:04.727Z,100097.84
2023-08-24T11:16:42.469Z,100102.88
2023-08-24T11:19:09.732Z,100107.59
2023-08-24T11:21:36.537Z,100099.03
2023-08-24T11:24:03.459Z,100097.59
2023-08-24T11:26:32.096Z,100099.31
2023-08-24T11:29:00.610Z,100099.88
2023-08-24T11:31:27.700Z,100098.03
2023-08-24T11:33:57.424Z,100090.28
2023-08-24T11:36:27.231Z,100091.31
2023-08-24T11:38:57.009Z,100089.72
2023-08-24T11:41:23.640Z,100092.44
2023-08-24T11:43:52.246Z,100095.31
2023-08-24T11:46:19.590Z,100089.47
2023-08-24T11:48:46.667Z,100089.84
2023-08-24T11:51:14.150Z,100086.63
2023-08-24T11:53:43.087Z,100086.91
2023-08-24T11:56:10.923Z,100092.53
2023-08-24T11:58:43.911Z,100077.97
2023-08-24T12:01:15.049Z,100087.78
2023-08-24T12:03:42.088Z,100088.41
2023-08-24T12:06:12.728Z,100086.22
2023-08-24T12:08:40.627Z,100088.25
2023-08-24T12:11:20.459Z,100085.22
2023-08-24T12:13:51.371Z,100096.22
2023-08-24T12:16:18.766Z,100100.69
2023-08-24T12:18:49.787Z,100094.56
2023-08-24T12:21:16.547Z,100080.91
2023-08-24T12:23:43.208Z,100088.41
2023-08-24T12:26:17.950Z,100086.97
2023-08-24T12:28:44.639Z,100094.34
2023-08-24T12:31:15.221Z,100093.91
2023-08-24T12:33:42.075Z,100095.72
2023-08-24T12:36:08.647Z,100094.47
2023-08-24T12:38:36.834Z,100093.28
2023-08-24T12:41:03.489Z,100086.34
2023-08-24T12:43:30.122Z,100039.50
2023-08-24T12:45:56.725Z,100075.78
2023-08-24T12:48:23.499Z,100074.31
2023-08-24T12:50:50.225Z,100076.16
2023-08-24T12:53:17.044Z,100079.41
2023-08-24T12:55:43.978Z,100072.94
2023-08-24T12:58:10.662Z,100066.63
2023-08-24T13:00:37.389Z,100071.91
2023-08-24T13:03:04.290Z,100023.88
2023-08-24T13:05:32.670Z,100076.25
2023-08-24T13:07:59.701Z,100074.41
2023-08-24T13:10:26.463Z,100069.56
2023-08-24T13:12:53.189Z,100075.72
2023-08-24T13:15:19.786Z,100078.22
2023-08-24T13:17:46.484Z,100077.09
2023-08-24T13:20:13.064Z,100077.13
2023-08-24T13:22:39.766Z,100075.66
2023-08-24T13:25:06.583Z,100063.16
2023-08-24T13:27:33.171Z,100063.81
2023-08-24T13:30:03.032Z,100061.34
2023-08-24T13:32:30.466Z,100064.22
2023-08-24T13:34:57.202Z,100062.44
2023-08-24T13:37:26.401Z,100061.19
2023-08-24T13:39:53.123Z,100061.00
2023-08-24T13:42:19.850Z,100067.06
2023-08-24T13:44:47.345Z,100068.53
2023-08-24T13:47:13.990Z,100077.69
2023-08-24T13:49:41.420Z,100075.84
2023-08-24T13:52:08.461Z,100077.66
2023-08-24T13:54:35.288Z,100075.41
2023-08-24T13:57:02.660Z,100068.09
2023-08-24T13:59:29.760Z,100072.13
2023-08-24T14:01:56.746Z,100068.28
2023-08-24T14:04:23.362Z,100068.28
2023-08-24T14:06:50.092Z,100065.66
2023-08-24T14:09:17.150Z,100069.94
2023-08-24T14:11:43.903Z,100067.28
2023-08-24T14:14:11.221Z,100064.44
2023-08-24T14:16:37.996Z,100067.50
2023-08-24T14:19:05.815Z,100068.53
2023-08-24T14:21:44.135Z,100074.03
2023-08-24T14:24:11.820Z,100069.19
2023-08-24T14:26:40.549Z,100063.69
2023-08-24T14:29:07.436Z,100066.75
2023-08-24T14:31:34.123Z,100072.19
2023-08-24T14:34:07.024Z,100070.38
2023-08-24T14:36:36.140Z,100068.53
2023-08-24T14:39:14.832Z,100073.03
2023-08-24T14:41:41.613Z,100073.03
2023-08-24T14:44:08.495Z,100073.44
2023-08-24T14:46:38.410Z,100064.00
2023-08-24T14:49:06.396Z,100071.94
2023-08-24T14:51:38.274Z,100069.91
2023-08-24T14:54:04.929Z,100064.16
2023-08-24T14:56:34.595Z,100063.34
2023-08-24T14:59:02.229Z,100066.81
2023-08-24T15:01:34.152Z,100067.22
2023-08-24T15:04:02.292Z,100068.44
2023-08-24T15:06:31.441Z,100061.50
2023-08-24T15:08:59.434Z,100060.13
2023-08-24T15:11:26.102Z,100056.63
2023-08-24T15:13:52.765Z,100059.91
2023-08-24T15:16:19.939Z,100058.50
2023-08-24T15:18:46.658Z,100065.25
2023-08-24T15:21:18.197Z,100062.13
2023-08-24T15:23:44.896Z,100062.53
2023-08-24T15:26:11.557Z,100062.16
2023-08-24T15:28:39.121Z,100060.53
2023-08-24T15:31:06.042Z,100056.06
2023-08-24T15:33:36.941Z,100056.47
2023-08-24T15:36:03.948Z,100058.50
2023-08-24T15:38:31.788Z,100050.34
2023-08-24T15:40:58.445Z,100042.97
2023-08-24T15:43:25.032Z,100043.38
2023-08-24T15:45:54.460Z,100041.28
2023-08-24T15:48:21.091Z,100040.06
2023-08-24T15:50:47.721Z,100041.69
2023-08-24T15:53:14.428Z,100046.78
2023-08-24T15:55:41.380Z,100040.25
2023-08-24T15:58:08.038Z,100043.53
2023-08-24T16:00:34.815Z,100038.03
2023-08-24T16:03:01.418Z,100034.38
2023-08-24T16:05:28.562Z,100033.34
2023-08-24T16:07:55.845Z,100028.06
2023-08-24T16:10:22.654Z,100019.50
2023-08-24T16:12:49.839Z,100022.97
2023-08-24T16:15:16.536Z,100018.69
2023-08-24T16:17:43.257Z,100013.41
2023-08-24T16:20:11.117Z,100011.94
2023-08-24T16:22:38.188Z,100017.06
2023-08-24T16:25:05.510Z,100020.31
2023-08-24T16:27:32.276Z,100004.63
2023-08-24T16:29:58.893Z,100019.91
2023-08-24T16:32:25.717Z,100015.22
2023-08-24T16:34:52.898Z,100024.81
2023-08-24T16:37:19.531Z,100025.81
2023-08-24T16:39:46.282Z,100019.31
2023-08-24T16:42:12.960Z,100020.31
2023-08-24T16:44:39.630Z,100017.66
2023-08-24T16:47:06.377Z,100021.16
2023-08-24T16:49:34.607Z,100016.47
2023-08-24T16:52:01.714Z,100015.66
2023-08-24T16:54:28.352Z,100014.63
2023-08-24T16:56:55.026Z,100010.38
2023-08-24T16:59:21.649Z,100006.69
2023-08-24T17:01:48.476Z,100013.63
2023-08-24T17:04:15.326Z,100010.97
2023-08-24T17:06:42.303Z,100014.44
2023-08-24T17:09:09.080Z,100014.44
2023-08-24T17:11:35.805Z,100010.38
2023-08-24T17:14:02.409Z,100007.28
2023-08-24T17:16:29.271Z,100005.28
2023-08-24T17:18:55.989Z,99999.75
2023-08-24T17:21:22.752Z,100004.63
2023-08-24T17:23:49.488Z,100005.25
2023-08-24T17:26:16.112Z,100004.16
2023-08-24T17:28:42.682Z,99998.25
2023-08-24T17:31:10.229Z,100012.50
2023-08-24T17:33:36.850Z,100007.41
2023-08-24T17:36:03.938Z,99999.25
2023-08-24T17:38:32.752Z,100002.94
2023-08-24T17:41:03.878Z,100002.28
2023-08-24T17:43:31.207Z,100008.81
2023-08-24T17:45:57.793Z,100003.94
2023-08-24T17:48:24.412Z,99688.53
2023-08-24T17:50:54.765Z,100006.50
2023-08-24T17:53:26.901Z,100011.38
2023-08-24T17:55:54.147Z,100011.94
2023-08-24T17:58:21.409Z,100005.41
2023-08-24T18:00:48.141Z,99999.06
2023-08-24T18:03:14.784Z,100009.22
2023-08-24T18:05:41.982Z,100008.75
2023-08-24T18:08:09.506Z,100009.56
2023-08-24T18:10:36.373Z,100011.22
2023-08-24T18:13:03.871Z,100009.13
2023-08-24T18:15:34.584Z,100006.88
2023-08-24T18:18:01.341Z,100008.31
2023-08-24T18:20:28.726Z,100011.53
2023-08-24T18:22:55.469Z,100012.53
2023-08-24T18:25:23.221Z,100012.53
2023-08-24T18:27:50.366Z,100020.28
2023-08-24T18:30:17.004Z,100018.03
2023-08-24T18:32:43.795Z,100009.66
2023-08-24T18:35:10.556Z,100020.41
2023-08-24T18:37:37.220Z,100018.41
2023-08-24T18:40:07.197Z,100019.22
2023-08-24T18:42:34.029Z,100019.72
2023-08-24T18:45:00.605Z,100018.28
2023-08-24T18:47:27.654Z,100024.75
2023-08-24T18:49:54.439Z,100020.69
2023-08-24T18:52:21.244Z,100010.13
2023-08-24T18:54:47.925Z,100012.56
2023-08-24T18:57:14.777Z,100017.84
2023-08-24T18:59:41.502Z,100019.03
2023-08-24T19:02:08.242Z,100027.53
2023-08-24T19:04:34.859Z,100032.00
2023-08-24T19:07:01.657Z,100033.66
2023-08-24T19:09:28.262Z,100036.72
2023-08-24T19:11:54.980Z,100038.75
2023-08-24T19:14:21.564Z,100038.47
2023-08-24T19:16:48.183Z,100039.13
2023-08-24T19:19:15.109Z,100041.97
2023-08-24T19:21:42.464Z,100043.75
2023-08-24T19:24:09.968Z,100043.38
2023-08-24T19:26:36.644Z,100043.38
2023-08-24T19:29:09.176Z,100041.78
2023-08-24T19:31:37.565Z,100038.47
2023-08-24T19:34:05.988Z,100037.47
2023-08-24T19:36:32.668Z,100030.56
2023-08-24T19:38:59.230Z,100031.56
2023-08-24T19:41:26.322Z,100026.66
2023-08-24T19:43:53.060Z,100032.94
2023-08-24T19:46:19.697Z,100035.97
2023-08-24T19:48:46.393Z,100030.84
2023-08-24T19:51:12.980Z,100036.78
2023-08-24T19:53:39.635Z,100034.16
2023-08-24T19:56:06.170Z,100022.50
2023-08-24T19:58:32.835Z,100029.00
2023-08-24T20:00:59.482Z,100022.50
2023-08-24T20:03:27.038Z,100031.81
2023-08-24T20:05:54.693Z,100029.81
2023-08-24T20:08:21.293Z,100031.63
2023-08-24T20:10:47.846Z,100031.38
2023-08-24T20:13:14.450Z,100018.53
2023-08-24T20:15:41.111Z,100025.19
2023-08-24T20:18:08.630Z,100025.81
2023-08-24T20:20:35.403Z,100026.84
2023-08-24T20:23:02.301Z,100026.03
2023-08-24T20:25:29.057Z,100019.28
2023-08-24T20:27:56.044Z,100020.94
2023-08-24T20:30:22.868Z,100027.66
2023-08-24T20:32:49.506Z,100018.19
2023-08-24T20:35:16.198Z,100022.41
2023-08-24T20:37:42.853Z,100028.78
2023-08-24T20:40:09.649Z,100020.44
2023-08-24T20:42:36.303Z,100029.38
2023-08-24T20:45:03.703Z,100027.00
2023-08-24T20:47:30.483Z,100025.97
2023-08-24T20:49:57.122Z,100021.91
2023-08-24T20:52:23.832Z,100027.44
2023-08-24T20:54:51.480Z,100035.97
2023-08-24T20:57:18.154Z,100025.41
2023-08-24T20:59:44.803Z,100027.69
2023-08-24T21:02:11.515Z,100025.50
2023-08-24T21:04:38.216Z,100020.22
2023-08-24T21:07:04.958Z,100021.03
2023-08-24T21:09:31.580Z,100028.75
2023-08-24T21:11:58.476Z,100026.13
2023-08-24T21:14:25.109Z,100030.16
2023-08-24T21:16:51.809Z,100030.16
2023-08-24T21:19:18.441Z,100033.78
2023-08-24T21:21:45.317Z,100033.59
2023-08-24T21:24:11.864Z,100037.44
2023-08-24T21:26:38.567Z,100026.03
2023-08-24T21:29:05.189Z,100030.25
2023-08-24T21:31:31.823Z,100028.25
2023-08-24T21:33:58.405Z,100029.09
2023-08-24T21:36:25.063Z,100028.63
2023-08-24T21:38:51.735Z,100025.97
2023-08-24T21:41:18.960Z,100021.34
2023-08-24T21:43:45.600Z,100021.53
2023-08-24T21:46:12.585Z,100027.00
2023-08-24T21:48:39.200Z,100027.63
2023-08-24T21:51:05.789Z,100038.28
2023-08-24T21:53:32.412Z,100037.47
2023-08-24T21:55:59.035Z,100037.31
2023-08-24T21:58:25.632Z,100032.47
2023-08-24T22:01:11.779Z,100031.63
2023-08-24T22:03:57.234Z,100034.19
2023-08-24T22:06:24.085Z,100034.53
2023-08-24T22:08:50.921Z,100040.59
2023-08-24T22:11:17.655Z,100043.94
2023-08-24T22:13:44.389Z,100036.28
2023-08-24T22:16:11.052Z,100042.28
2023-08-24T22:18:37.708Z,100043.41
2023-08-24T22:21:04.377Z,100041.66
2023-08-24T22:23:31.031Z,100033.91
2023-08-24T22:25:58.214Z,100028.38
2023-08-24T22:28:24.843Z,100032.47
2023-08-24T22:30:51.786Z,100032.66
2023-08-24T22:33:20.496Z,100023.91
2023-08-24T22:35:47.194Z,100020.09
2023-08-24T22:38:14.014Z,100020.53
2023-08-24T22:40:40.758Z,100015.16
2023-08-24T22:43:07.374Z,100011.91
2023-08-24T22:45:38.629Z,100015.44
2023-08-24T22:48:05.768Z,100014.66
2023-08-24T22:50:32.732Z,100011.91
2023-08-24T22:52:59.416Z,100005.81
2023-08-24T22:55:26.033Z,100010.28
2023-08-24T22:57:52.925Z,100007.72
2023-08-24T23:00:19.718Z,100005.78
2023-08-24T23:02:46.640Z,100001.38
2023-08-24T23:05:13.241Z,99996.09
2023-08-24T23:07:39.947Z,100000.78
2023-08-24T23:10:07.155Z,99995.78
2023-08-24T23:12:33.868Z,99990.16
2023-08-24T23:15:00.467Z,99991.88
2023-08-24T23:17:27.117Z,99999.09
2023-08-24T23:19:54.153Z,99984.97
2023-08-24T23:22:20.878Z,99983.41
2023-08-24T23:24:51.125Z,99985.25
2023-08-24T23:27:18.714Z,99978.31
2023-08-24T23:29:45.389Z,99977.50
2023-08-24T23:32:11.996Z,99972.88
2023-08-24T23:34:38.622Z,99973.03
2023-08-24T23:37:06.601Z,99963.03
2023-08-24T23:39:33.333Z,99967.75
2023-08-24T23:42:00.062Z,99956.22
2023-08-24T23:44:26.859Z,99960.09
2023-08-24T23:46:53.831Z,99954.66
2023-08-24T23:49:20.896Z,99947.53
2023-08-24T23:51:47.579Z,99944.28
2023-08-24T23:54:14.429Z,99939.66
2023-08-24T23:56:41.031Z,99946.56
2023-08-24T23:59:07.955Z,99937.56
